Aviation Digital Data Service (ADDS)

Output produced by METARs form (1954 UTC 31 October 2014)
found at http://aviationweather.gov/adds/metars/
 
KDFW 311729Z 3118/0124 02017KT P6SM FEW035 
     FM010000 03008KT P6SM SKC 
     FM011500 13008KT P6SM SCT250